San Miguel de Allende, Mexico

5:18 PM CST on December 02, 2016 (GMT -0600)
Durango | | Change Station

Elev 6093 ft 24.12 °N, 104.53 °W | Updated 35 minutes ago

Mostly Cloudy
Mostly Cloudy
63 °F
Feels Like 63 °F
N
16
Wind Variable Wind from South

Today
High -- | Low -- °F
--% Chance of Precip.
Yesterday
High -- | Low -- °F
Precip. -- in
Pressure 30.06 in
Visibility 12.0 miles
Clouds Mostly Cloudy 1800 ft
Mostly Cloudy 20000 ft
Dew Point 48 °F
Humidity 59%
Rainfall 0.00 in
Snow Depth Not available.
7:28 AM 6:12 PM
Waxing Crescent, 11% visible
METAR MMDO 022243Z 17014KT 12SM BKN018 BKN200 17/09 A3006 RMK 8/403 DSNT CB 10SM 1ST QUAD DSNT PCNN 10SM 1ST QUAD 8SM 2ND QUAD
Pressure 30.06 in
Visibility 12.0 miles
Clouds Mostly Cloudy 1800 ft
Mostly Cloudy 20000 ft
Dew Point 48 °F
Humidity 59%
Rainfall 0.00 in
Snow Depth Not available.
7:28 AM 6:12 PM
Waxing Crescent, 11% visible
METAR MMDO 022243Z 17014KT 12SM BKN018 BKN200 17/09 A3006 RMK 8/403 DSNT CB 10SM 1ST QUAD DSNT PCNN 10SM 1ST QUAD 8SM 2ND QUAD

10-Day Weather Forecast

No radar image for this location.
×

Almanac

Astronomy

Dec. 02, 2016 Rise Set
Actual Time
Civil Twilight
Nautical Twilight
Astronomical Twilight
Moon
Length of Visible Light
Length of Day
Tomorrow will be .
, % of the Moon is Illuminated

Today's Extremes

Country Highs Country Lows

Community

WunderPhotos

Upload Photos

1,955,377 photos uploaded!

WunderBlog® & News

Nearby

Air Quality

  Air Quality AQ Index Pollutant
Not available.

Snow Depth

Station Depth Elevation

Earthquake Activity

City Distance Mag. Time & Date
Minimum magnitude displayed is 2.5.

Coastal Water Temperatures

Place Temperature

Stations

Nearby Weather Stations

Station Location Temp. Windchill Dew Point Humidity Wind Precip. Elev Updated Type